sensor_id;sensor_type;location;lat;lon;timestamp;P1;durP1;ratioP1;P2;durP2;ratioP2
211;SDS011;16228;48.800;9.002;2022-08-21T00:00:44;5.00;;;4.10;;
211;SDS011;16228;48.800;9.002;2022-08-21T00:03:12;4.37;;;3.53;;
211;SDS011;16228;48.800;9.002;2022-08-21T00:05:40;3.70;;;3.13;;
211;SDS011;16228;48.800;9.002;2022-08-21T00:08:08;4.00;;;3.70;;
211;SDS011;16228;48.800;9.002;2022-08-21T00:10:36;4.90;;;3.60;;
211;SDS011;16228;48.800;9.002;2022-08-21T00:13:04;5.07;;;3.50;;
211;SDS011;16228;48.800;9.002;2022-08-21T00:15:33;5.43;;;4.40;;
211;SDS011;16228;48.800;9.002;2022-08-21T00:18:01;5.83;;;4.73;;
211;SDS011;16228;48.800;9.002;2022-08-21T00:20:29;6.73;;;4.13;;
211;SDS011;16228;48.800;9.002;2022-08-21T00:22:57;4.30;;;3.90;;
211;SDS011;16228;48.800;9.002;2022-08-21T00:25:24;5.53;;;3.83;;
211;SDS011;16228;48.800;9.002;2022-08-21T00:27:52;4.37;;;3.80;;
211;SDS011;16228;48.800;9.002;2022-08-21T00:30:22;4.17;;;3.77;;
211;SDS011;16228;48.800;9.002;2022-08-21T00:32:51;4.23;;;3.83;;
211;SDS011;16228;48.800;9.002;2022-08-21T00:35:20;3.87;;;3.47;;
211;SDS011;16228;48.800;9.002;2022-08-21T00:37:49;5.33;;;3.53;;
211;SDS011;16228;48.800;9.002;2022-08-21T00:40:18;4.70;;;3.40;;
211;SDS011;16228;48.800;9.002;2022-08-21T00:42:48;3.70;;;3.40;;
211;SDS011;16228;48.800;9.002;2022-08-21T00:45:16;5.60;;;3.93;;
211;SDS011;16228;48.800;9.002;2022-08-21T00:47:44;4.73;;;4.10;;
211;SDS011;16228;48.800;9.002;2022-08-21T00:50:11;4.00;;;3.60;;
211;SDS011;16228;48.800;9.002;2022-08-21T00:52:40;3.43;;;3.03;;
211;SDS011;16228;48.800;9.002;2022-08-21T00:55:09;5.03;;;3.63;;
211;SDS011;16228;48.800;9.002;2022-08-21T00:57:39;4.77;;;3.73;;
211;SDS011;16228;48.800;9.002;2022-08-21T01:00:12;4.10;;;3.67;;
211;SDS011;16228;48.800;9.002;2022-08-21T01:02:42;4.40;;;3.50;;
211;SDS011;16228;48.800;9.002;2022-08-21T01:05:11;4.73;;;3.90;;
211;SDS011;16228;48.800;9.002;2022-08-21T01:07:40;5.87;;;3.67;;
211;SDS011;16228;48.800;9.002;2022-08-21T01:10:08;4.60;;;4.20;;
211;SDS011;16228;48.800;9.002;2022-08-21T01:12:36;6.33;;;4.53;;
211;SDS011;16228;48.800;9.002;2022-08-21T01:15:04;5.30;;;4.17;;
211;SDS011;16228;48.800;9.002;2022-08-21T01:17:32;4.00;;;3.60;;
211;SDS011;16228;48.800;9.002;2022-08-21T01:20:02;4.60;;;4.13;;
211;SDS011;16228;48.800;9.002;2022-08-21T01:22:33;7.10;;;4.40;;
211;SDS011;16228;48.800;9.002;2022-08-21T01:25:02;5.07;;;4.03;;
211;SDS011;16228;48.800;9.002;2022-08-21T01:27:30;5.87;;;4.60;;
211;SDS011;16228;48.800;9.002;2022-08-21T01:29:57;5.80;;;4.30;;
211;SDS011;16228;48.800;9.002;2022-08-21T01:32:30;4.33;;;3.73;;
211;SDS011;16228;48.800;9.002;2022-08-21T01:34:57;5.03;;;4.10;;
211;SDS011;16228;48.800;9.002;2022-08-21T01:37:24;4.27;;;3.70;;
211;SDS011;16228;48.800;9.002;2022-08-21T01:39:52;4.90;;;3.60;;
211;SDS011;16228;48.800;9.002;2022-08-21T01:42:19;5.23;;;4.00;;
211;SDS011;16228;48.800;9.002;2022-08-21T01:44:46;3.80;;;3.50;;
211;SDS011;16228;48.800;9.002;2022-08-21T01:47:14;6.10;;;4.00;;
211;SDS011;16228;48.800;9.002;2022-08-21T01:49:42;7.17;;;4.40;;
211;SDS011;16228;48.800;9.002;2022-08-21T01:52:10;4.77;;;3.80;;
211;SDS011;16228;48.800;9.002;2022-08-21T01:54:37;6.97;;;4.17;;
211;SDS011;16228;48.800;9.002;2022-08-21T01:57:06;4.07;;;3.63;;
211;SDS011;16228;48.800;9.002;2022-08-21T01:59:34;4.37;;;3.60;;
211;SDS011;16228;48.800;9.002;2022-08-21T02:02:02;8.53;;;3.97;;
211;SDS011;16228;48.800;9.002;2022-08-21T02:04:29;6.63;;;4.27;;
211;SDS011;16228;48.800;9.002;2022-08-21T02:06:56;5.53;;;4.17;;
211;SDS011;16228;48.800;9.002;2022-08-21T02:09:23;4.77;;;4.13;;
211;SDS011;16228;48.800;9.002;2022-08-21T02:11:50;5.50;;;4.17;;
211;SDS011;16228;48.800;9.002;2022-08-21T02:14:19;4.37;;;3.97;;
211;SDS011;16228;48.800;9.002;2022-08-21T02:16:46;4.93;;;4.07;;
211;SDS011;16228;48.800;9.002;2022-08-21T02:19:14;4.73;;;4.30;;
211;SDS011;16228;48.800;9.002;2022-08-21T02:21:42;4.47;;;4.07;;
211;SDS011;16228;48.800;9.002;2022-08-21T02:24:10;4.77;;;4.07;;
211;SDS011;16228;48.800;9.002;2022-08-21T02:26:38;5.23;;;4.73;;
211;SDS011;16228;48.800;9.002;2022-08-21T02:29:05;7.47;;;4.70;;
211;SDS011;16228;48.800;9.002;2022-08-21T02:31:33;5.70;;;5.20;;
211;SDS011;16228;48.800;9.002;2022-08-21T02:34:00;4.20;;;3.80;;
211;SDS011;16228;48.800;9.002;2022-08-21T02:36:27;5.20;;;4.30;;
211;SDS011;16228;48.800;9.002;2022-08-21T02:38:55;8.00;;;4.60;;
211;SDS011;16228;48.800;9.002;2022-08-21T02:41:22;5.10;;;3.90;;
211;SDS011;16228;48.800;9.002;2022-08-21T02:43:49;4.13;;;3.30;;
211;SDS011;16228;48.800;9.002;2022-08-21T02:46:17;5.20;;;4.13;;
211;SDS011;16228;48.800;9.002;2022-08-21T02:48:47;4.30;;;3.90;;
211;SDS011;16228;48.800;9.002;2022-08-21T02:51:16;4.40;;;4.00;;
211;SDS011;16228;48.800;9.002;2022-08-21T02:53:45;6.57;;;4.20;;
211;SDS011;16228;48.800;9.002;2022-08-21T02:56:14;6.07;;;4.30;;
211;SDS011;16228;48.800;9.002;2022-08-21T02:58:43;5.13;;;3.90;;
211;SDS011;16228;48.800;9.002;2022-08-21T03:01:12;6.30;;;4.40;;
211;SDS011;16228;48.800;9.002;2022-08-21T03:03:42;4.60;;;3.80;;
211;SDS011;16228;48.800;9.002;2022-08-21T03:06:12;5.70;;;3.63;;
211;SDS011;16228;48.800;9.002;2022-08-21T03:08:41;3.93;;;3.27;;
211;SDS011;16228;48.800;9.002;2022-08-21T03:11:10;5.37;;;3.87;;
211;SDS011;16228;48.800;9.002;2022-08-21T03:13:37;4.33;;;3.93;;
211;SDS011;16228;48.800;9.002;2022-08-21T03:16:05;5.07;;;3.93;;
211;SDS011;16228;48.800;9.002;2022-08-21T03:18:32;4.27;;;3.80;;
211;SDS011;16228;48.800;9.002;2022-08-21T03:21:00;4.97;;;3.70;;
211;SDS011;16228;48.800;9.002;2022-08-21T03:23:29;10.13;;;4.30;;
211;SDS011;16228;48.800;9.002;2022-08-21T03:25:57;6.20;;;4.23;;
211;SDS011;16228;48.800;9.002;2022-08-21T03:28:24;6.47;;;4.00;;
211;SDS011;16228;48.800;9.002;2022-08-21T03:30:51;4.83;;;3.57;;
211;SDS011;16228;48.800;9.002;2022-08-21T03:33:19;5.40;;;4.90;;
211;SDS011;16228;48.800;9.002;2022-08-21T03:35:47;5.67;;;4.23;;
211;SDS011;16228;48.800;9.002;2022-08-21T03:38:18;5.53;;;4.30;;
211;SDS011;16228;48.800;9.002;2022-08-21T03:40:47;3.73;;;3.40;;
211;SDS011;16228;48.800;9.002;2022-08-21T03:43:14;6.50;;;4.40;;
211;SDS011;16228;48.800;9.002;2022-08-21T03:45:41;4.93;;;4.53;;
211;SDS011;16228;48.800;9.002;2022-08-21T03:48:08;5.03;;;4.40;;
211;SDS011;16228;48.800;9.002;2022-08-21T03:50:36;6.30;;;4.83;;
211;SDS011;16228;48.800;9.002;2022-08-21T03:53:07;7.17;;;4.27;;
211;SDS011;16228;48.800;9.002;2022-08-21T03:55:34;5.27;;;4.77;;
211;SDS011;16228;48.800;9.002;2022-08-21T03:58:03;5.97;;;3.97;;
211;SDS011;16228;48.800;9.002;2022-08-21T04:00:30;5.63;;;4.17;;
211;SDS011;16228;48.800;9.002;2022-08-21T04:02:57;5.03;;;4.50;;
211;SDS011;16228;48.800;9.002;2022-08-21T04:05:25;4.87;;;4.37;;
211;SDS011;16228;48.800;9.002;2022-08-21T04:07:56;5.53;;;4.07;;
211;SDS011;16228;48.800;9.002;2022-08-21T04:10:24;5.30;;;4.00;;
211;SDS011;16228;48.800;9.002;2022-08-21T04:12:51;5.77;;;4.80;;
211;SDS011;16228;48.800;9.002;2022-08-21T04:15:21;5.83;;;4.03;;
211;SDS011;16228;48.800;9.002;2022-08-21T04:17:48;6.33;;;5.00;;
211;SDS011;16228;48.800;9.002;2022-08-21T04:20:16;5.60;;;4.40;;
211;SDS011;16228;48.800;9.002;2022-08-21T04:22:43;5.27;;;4.20;;
211;SDS011;16228;48.800;9.002;2022-08-21T04:25:11;6.47;;;4.13;;
211;SDS011;16228;48.800;9.002;2022-08-21T04:27:38;4.97;;;4.40;;
211;SDS011;16228;48.800;9.002;2022-08-21T04:30:06;4.73;;;4.23;;
211;SDS011;16228;48.800;9.002;2022-08-21T04:32:35;6.77;;;4.73;;
211;SDS011;16228;48.800;9.002;2022-08-21T04:35:04;5.47;;;4.50;;
211;SDS011;16228;48.800;9.002;2022-08-21T04:37:33;6.00;;;4.30;;
211;SDS011;16228;48.800;9.002;2022-08-21T04:40:01;6.63;;;4.70;;
211;SDS011;16228;48.800;9.002;2022-08-21T04:42:29;6.47;;;4.77;;
211;SDS011;16228;48.800;9.002;2022-08-21T04:44:56;5.93;;;4.37;;
211;SDS011;16228;48.800;9.002;2022-08-21T04:47:23;4.90;;;4.50;;
211;SDS011;16228;48.800;9.002;2022-08-21T04:49:52;5.43;;;4.83;;
211;SDS011;16228;48.800;9.002;2022-08-21T04:52:20;6.53;;;5.33;;
211;SDS011;16228;48.800;9.002;2022-08-21T04:54:49;4.50;;;4.10;;
211;SDS011;16228;48.800;9.002;2022-08-21T04:57:17;7.33;;;5.47;;
211;SDS011;16228;48.800;9.002;2022-08-21T04:59:46;4.50;;;4.17;;
211;SDS011;16228;48.800;9.002;2022-08-21T05:02:16;6.20;;;4.70;;
211;SDS011;16228;48.800;9.002;2022-08-21T05:04:45;6.20;;;5.13;;
211;SDS011;16228;48.800;9.002;2022-08-21T05:07:18;9.20;;;5.33;;
211;SDS011;16228;48.800;9.002;2022-08-21T05:09:47;7.13;;;5.10;;
211;SDS011;16228;48.800;9.002;2022-08-21T05:12:15;7.03;;;5.03;;
211;SDS011;16228;48.800;9.002;2022-08-21T05:14:42;7.00;;;5.07;;
211;SDS011;16228;48.800;9.002;2022-08-21T05:17:09;5.40;;;4.43;;
211;SDS011;16228;48.800;9.002;2022-08-21T05:19:36;7.00;;;4.80;;
211;SDS011;16228;48.800;9.002;2022-08-21T05:22:03;5.10;;;4.30;;
211;SDS011;16228;48.800;9.002;2022-08-21T05:24:32;6.47;;;4.70;;
211;SDS011;16228;48.800;9.002;2022-08-21T05:26:59;4.30;;;3.87;;
211;SDS011;16228;48.800;9.002;2022-08-21T05:29:26;6.17;;;4.40;;
211;SDS011;16228;48.800;9.002;2022-08-21T05:31:56;5.20;;;4.33;;
211;SDS011;16228;48.800;9.002;2022-08-21T05:34:23;6.27;;;4.60;;
211;SDS011;16228;48.800;9.002;2022-08-21T05:36:50;5.50;;;4.23;;
211;SDS011;16228;48.800;9.002;2022-08-21T05:39:17;4.63;;;4.07;;
211;SDS011;16228;48.800;9.002;2022-08-21T05:41:46;4.53;;;4.07;;
211;SDS011;16228;48.800;9.002;2022-08-21T05:44:13;4.30;;;3.90;;
211;SDS011;16228;48.800;9.002;2022-08-21T05:46:40;6.13;;;3.53;;
211;SDS011;16228;48.800;9.002;2022-08-21T05:49:07;4.87;;;3.97;;
211;SDS011;16228;48.800;9.002;2022-08-21T05:51:34;4.73;;;4.20;;
211;SDS011;16228;48.800;9.002;2022-08-21T05:54:01;4.60;;;4.03;;
211;SDS011;16228;48.800;9.002;2022-08-21T05:56:28;6.43;;;3.63;;
211;SDS011;16228;48.800;9.002;2022-08-21T05:58:56;3.60;;;3.30;;
211;SDS011;16228;48.800;9.002;2022-08-21T06:01:23;4.40;;;3.13;;
211;SDS011;16228;48.800;9.002;2022-08-21T06:03:50;3.43;;;3.00;;
211;SDS011;16228;48.800;9.002;2022-08-21T06:06:17;3.63;;;2.70;;
211;SDS011;16228;48.800;9.002;2022-08-21T06:08:44;3.63;;;2.80;;
211;SDS011;16228;48.800;9.002;2022-08-21T06:11:11;4.40;;;2.73;;
211;SDS011;16228;48.800;9.002;2022-08-21T06:13:38;3.20;;;2.90;;
211;SDS011;16228;48.800;9.002;2022-08-21T06:16:08;3.27;;;2.70;;
211;SDS011;16228;48.800;9.002;2022-08-21T06:18:38;3.07;;;2.57;;
211;SDS011;16228;48.800;9.002;2022-08-21T06:21:05;4.77;;;2.83;;
211;SDS011;16228;48.800;9.002;2022-08-21T06:23:33;5.23;;;2.80;;
211;SDS011;16228;48.800;9.002;2022-08-21T06:26:01;3.13;;;2.50;;
211;SDS011;16228;48.800;9.002;2022-08-21T06:28:29;3.77;;;2.77;;
211;SDS011;16228;48.800;9.002;2022-08-21T06:30:57;2.73;;;2.53;;
211;SDS011;16228;48.800;9.002;2022-08-21T06:33:25;3.37;;;2.87;;
211;SDS011;16228;48.800;9.002;2022-08-21T06:35:52;5.60;;;2.70;;
211;SDS011;16228;48.800;9.002;2022-08-21T06:38:19;3.97;;;2.40;;
211;SDS011;16228;48.800;9.002;2022-08-21T06:40:46;4.13;;;2.50;;
211;SDS011;16228;48.800;9.002;2022-08-21T06:43:15;2.80;;;2.10;;
211;SDS011;16228;48.800;9.002;2022-08-21T06:45:43;3.40;;;2.40;;
211;SDS011;16228;48.800;9.002;2022-08-21T06:48:10;3.57;;;2.63;;
211;SDS011;16228;48.800;9.002;2022-08-21T06:50:38;2.93;;;2.50;;
211;SDS011;16228;48.800;9.002;2022-08-21T06:53:06;3.20;;;2.30;;
211;SDS011;16228;48.800;9.002;2022-08-21T06:55:35;5.40;;;2.30;;
211;SDS011;16228;48.800;9.002;2022-08-21T06:58:02;3.03;;;2.00;;
211;SDS011;16228;48.800;9.002;2022-08-21T07:00:29;2.17;;;1.70;;
211;SDS011;16228;48.800;9.002;2022-08-21T07:02:57;2.63;;;1.80;;
211;SDS011;16228;48.800;9.002;2022-08-21T07:05:24;2.83;;;1.60;;
211;SDS011;16228;48.800;9.002;2022-08-21T07:07:54;1.90;;;1.60;;
211;SDS011;16228;48.800;9.002;2022-08-21T07:10:22;2.67;;;1.77;;
211;SDS011;16228;48.800;9.002;2022-08-21T07:12:49;4.37;;;2.30;;
211;SDS011;16228;48.800;9.002;2022-08-21T07:15:16;3.20;;;1.90;;
211;SDS011;16228;48.800;9.002;2022-08-21T07:17:43;3.30;;;1.80;;
211;SDS011;16228;48.800;9.002;2022-08-21T07:20:10;2.28;;;1.75;;
211;SDS011;16228;48.800;9.002;2022-08-21T07:22:37;2.78;;;1.67;;
211;SDS011;16228;48.800;9.002;2022-08-21T07:25:07;2.83;;;2.03;;
211;SDS011;16228;48.800;9.002;2022-08-21T07:27:34;5.30;;;2.75;;
211;SDS011;16228;48.800;9.002;2022-08-21T07:30:01;3.65;;;2.47;;
211;SDS011;16228;48.800;9.002;2022-08-21T07:32:29;5.88;;;2.38;;
211;SDS011;16228;48.800;9.002;2022-08-21T07:34:56;5.35;;;2.95;;
211;SDS011;16228;48.800;9.002;2022-08-21T07:37:23;4.28;;;2.28;;
211;SDS011;16228;48.800;9.002;2022-08-21T07:39:50;5.13;;;2.47;;
211;SDS011;16228;48.800;9.002;2022-08-21T07:42:19;6.20;;;2.80;;
211;SDS011;16228;48.800;9.002;2022-08-21T07:44:46;3.05;;;2.20;;
211;SDS011;16228;48.800;9.002;2022-08-21T07:47:13;4.22;;;2.58;;
211;SDS011;16228;48.800;9.002;2022-08-21T07:49:40;4.70;;;3.00;;
211;SDS011;16228;48.800;9.002;2022-08-21T07:52:07;5.05;;;2.70;;
211;SDS011;16228;48.800;9.002;2022-08-21T07:54:34;5.15;;;3.17;;
211;SDS011;16228;48.800;9.002;2022-08-21T07:57:01;4.07;;;2.67;;
211;SDS011;16228;48.800;9.002;2022-08-21T07:59:29;5.55;;;2.60;;
211;SDS011;16228;48.800;9.002;2022-08-21T08:01:56;5.70;;;2.53;;
211;SDS011;16228;48.800;9.002;2022-08-21T08:04:23;4.63;;;2.60;;
211;SDS011;16228;48.800;9.002;2022-08-21T08:06:50;4.20;;;2.72;;
211;SDS011;16228;48.800;9.002;2022-08-21T08:09:17;6.20;;;3.53;;
211;SDS011;16228;48.800;9.002;2022-08-21T08:11:44;3.05;;;2.13;;
211;SDS011;16228;48.800;9.002;2022-08-21T08:14:11;4.82;;;2.80;;
211;SDS011;16228;48.800;9.002;2022-08-21T08:16:40;4.43;;;2.50;;
211;SDS011;16228;48.800;9.002;2022-08-21T08:19:07;3.28;;;2.60;;
211;SDS011;16228;48.800;9.002;2022-08-21T08:21:34;9.50;;;2.88;;
211;SDS011;16228;48.800;9.002;2022-08-21T08:24:03;3.40;;;2.45;;
211;SDS011;16228;48.800;9.002;2022-08-21T08:26:30;6.07;;;2.67;;
211;SDS011;16228;48.800;9.002;2022-08-21T08:28:57;4.65;;;2.50;;
211;SDS011;16228;48.800;9.002;2022-08-21T08:31:23;5.55;;;2.42;;
211;SDS011;16228;48.800;9.002;2022-08-21T08:33:52;4.38;;;2.17;;
211;SDS011;16228;48.800;9.002;2022-08-21T08:36:19;4.07;;;2.60;;
211;SDS011;16228;48.800;9.002;2022-08-21T08:38:46;3.80;;;2.67;;
211;SDS011;16228;48.800;9.002;2022-08-21T08:41:14;3.35;;;2.58;;
211;SDS011;16228;48.800;9.002;2022-08-21T08:43:49;4.07;;;2.40;;
211;SDS011;16228;48.800;9.002;2022-08-21T08:46:20;5.22;;;2.80;;
211;SDS011;16228;48.800;9.002;2022-08-21T08:48:54;3.00;;;2.25;;
211;SDS011;16228;48.800;9.002;2022-08-21T08:51:29;3.65;;;2.10;;
211;SDS011;16228;48.800;9.002;2022-08-21T08:54:07;3.13;;;2.13;;
211;SDS011;16228;48.800;9.002;2022-08-21T08:56:37;3.55;;;2.40;;
211;SDS011;16228;48.800;9.002;2022-08-21T08:59:06;3.17;;;2.38;;
211;SDS011;16228;48.800;9.002;2022-08-21T09:01:39;4.97;;;2.45;;
211;SDS011;16228;48.800;9.002;2022-08-21T09:04:08;6.88;;;2.83;;
211;SDS011;16228;48.800;9.002;2022-08-21T09:06:44;6.68;;;2.65;;
211;SDS011;16228;48.800;9.002;2022-08-21T09:09:22;4.88;;;2.40;;
211;SDS011;16228;48.800;9.002;2022-08-21T09:11:58;3.55;;;2.35;;
211;SDS011;16228;48.800;9.002;2022-08-21T09:14:32;5.78;;;2.78;;
211;SDS011;16228;48.800;9.002;2022-08-21T09:17:12;5.68;;;2.80;;
211;SDS011;16228;48.800;9.002;2022-08-21T09:19:56;4.53;;;2.13;;
211;SDS011;16228;48.800;9.002;2022-08-21T09:22:36;4.72;;;2.25;;
211;SDS011;16228;48.800;9.002;2022-08-21T09:25:11;5.43;;;2.55;;
211;SDS011;16228;48.800;9.002;2022-08-21T09:27:42;3.90;;;2.50;;
211;SDS011;16228;48.800;9.002;2022-08-21T09:30:09;3.20;;;2.20;;
211;SDS011;16228;48.800;9.002;2022-08-21T09:32:37;3.03;;;2.00;;
211;SDS011;16228;48.800;9.002;2022-08-21T09:35:08;4.53;;;2.50;;
211;SDS011;16228;48.800;9.002;2022-08-21T09:37:46;4.00;;;2.35;;
211;SDS011;16228;48.800;9.002;2022-08-21T09:40:19;6.25;;;2.58;;
211;SDS011;16228;48.800;9.002;2022-08-21T09:42:56;6.28;;;2.88;;
211;SDS011;16228;48.800;9.002;2022-08-21T09:45:24;3.70;;;2.07;;
211;SDS011;16228;48.800;9.002;2022-08-21T09:47:52;5.68;;;2.50;;
211;SDS011;16228;48.800;9.002;2022-08-21T09:50:23;3.92;;;2.38;;
211;SDS011;16228;48.800;9.002;2022-08-21T09:52:53;4.53;;;2.30;;
211;SDS011;16228;48.800;9.002;2022-08-21T09:55:26;3.38;;;2.30;;
211;SDS011;16228;48.800;9.002;2022-08-21T09:58:16;4.10;;;2.50;;
211;SDS011;16228;48.800;9.002;2022-08-21T10:00:45;3.85;;;2.60;;
211;SDS011;16228;48.800;9.002;2022-08-21T10:03:22;4.00;;;2.38;;
211;SDS011;16228;48.800;9.002;2022-08-21T10:05:56;4.28;;;2.40;;
211;SDS011;16228;48.800;9.002;2022-08-21T10:08:25;3.17;;;2.20;;
211;SDS011;16228;48.800;9.002;2022-08-21T10:10:55;3.92;;;2.30;;
211;SDS011;16228;48.800;9.002;2022-08-21T10:13:28;4.68;;;2.47;;
211;SDS011;16228;48.800;9.002;2022-08-21T10:16:11;4.82;;;2.47;;
211;SDS011;16228;48.800;9.002;2022-08-21T10:18:48;3.53;;;2.05;;
211;SDS011;16228;48.800;9.002;2022-08-21T10:21:30;3.83;;;2.53;;
211;SDS011;16228;48.800;9.002;2022-08-21T10:24:01;2.92;;;2.30;;
211;SDS011;16228;48.800;9.002;2022-08-21T10:26:38;4.13;;;2.55;;
211;SDS011;16228;48.800;9.002;2022-08-21T10:29:19;4.35;;;2.72;;
211;SDS011;16228;48.800;9.002;2022-08-21T10:32:02;4.82;;;2.50;;
211;SDS011;16228;48.800;9.002;2022-08-21T10:34:36;2.85;;;1.90;;
211;SDS011;16228;48.800;9.002;2022-08-21T10:37:14;3.00;;;1.90;;
211;SDS011;16228;48.800;9.002;2022-08-21T10:39:52;2.95;;;1.85;;
211;SDS011;16228;48.800;9.002;2022-08-21T10:42:31;4.97;;;2.55;;
211;SDS011;16228;48.800;9.002;2022-08-21T10:45:08;5.10;;;2.55;;
211;SDS011;16228;48.800;9.002;2022-08-21T10:47:41;6.25;;;2.45;;
211;SDS011;16228;48.800;9.002;2022-08-21T10:50:15;5.05;;;2.72;;
211;SDS011;16228;48.800;9.002;2022-08-21T10:53:00;4.10;;;2.45;;
211;SDS011;16228;48.800;9.002;2022-08-21T10:55:39;5.20;;;2.83;;
211;SDS011;16228;48.800;9.002;2022-08-21T10:58:11;3.35;;;2.20;;
211;SDS011;16228;48.800;9.002;2022-08-21T11:00:41;3.47;;;2.42;;
211;SDS011;16228;48.800;9.002;2022-08-21T11:03:13;4.50;;;2.75;;
211;SDS011;16228;48.800;9.002;2022-08-21T11:05:44;2.80;;;2.00;;
211;SDS011;16228;48.800;9.002;2022-08-21T11:08:17;3.00;;;2.20;;
211;SDS011;16228;48.800;9.002;2022-08-21T11:10:49;5.05;;;2.60;;
211;SDS011;16228;48.800;9.002;2022-08-21T11:13:21;4.18;;;2.60;;
211;SDS011;16228;48.800;9.002;2022-08-21T11:15:55;6.10;;;2.53;;
211;SDS011;16228;48.800;9.002;2022-08-21T11:18:27;5.97;;;2.17;;
211;SDS011;16228;48.800;9.002;2022-08-21T11:21:03;3.13;;;2.15;;
211;SDS011;16228;48.800;9.002;2022-08-21T11:23:41;3.88;;;2.40;;
211;SDS011;16228;48.800;9.002;2022-08-21T11:26:13;4.05;;;2.25;;
211;SDS011;16228;48.800;9.002;2022-08-21T11:28:45;2.55;;;2.28;;
211;SDS011;16228;48.800;9.002;2022-08-21T11:31:22;3.63;;;2.75;;
211;SDS011;16228;48.800;9.002;2022-08-21T11:34:01;3.67;;;2.30;;
211;SDS011;16228;48.800;9.002;2022-08-21T11:36:40;2.97;;;2.28;;
211;SDS011;16228;48.800;9.002;2022-08-21T11:39:19;3.90;;;2.40;;
211;SDS011;16228;48.800;9.002;2022-08-21T11:41:53;5.25;;;2.17;;
211;SDS011;16228;48.800;9.002;2022-08-21T11:44:31;3.05;;;2.20;;
211;SDS011;16228;48.800;9.002;2022-08-21T11:47:11;4.15;;;2.55;;
211;SDS011;16228;48.800;9.002;2022-08-21T11:49:53;4.57;;;2.70;;
211;SDS011;16228;48.800;9.002;2022-08-21T11:52:33;3.85;;;2.30;;
211;SDS011;16228;48.800;9.002;2022-08-21T11:55:07;4.50;;;2.92;;
211;SDS011;16228;48.800;9.002;2022-08-21T11:57:42;5.05;;;2.47;;
211;SDS011;16228;48.800;9.002;2022-08-21T12:00:17;3.10;;;2.08;;
211;SDS011;16228;48.800;9.002;2022-08-21T12:02:48;4.18;;;2.40;;
211;SDS011;16228;48.800;9.002;2022-08-21T12:05:26;4.40;;;2.60;;
211;SDS011;16228;48.800;9.002;2022-08-21T12:08:02;4.22;;;2.22;;
211;SDS011;16228;48.800;9.002;2022-08-21T12:10:34;3.35;;;2.20;;
211;SDS011;16228;48.800;9.002;2022-08-21T12:13:08;3.30;;;2.17;;
211;SDS011;16228;48.800;9.002;2022-08-21T12:15:38;3.58;;;2.40;;
211;SDS011;16228;48.800;9.002;2022-08-21T12:18:07;5.13;;;2.58;;
211;SDS011;16228;48.800;9.002;2022-08-21T12:20:57;4.55;;;2.83;;
211;SDS011;16228;48.800;9.002;2022-08-21T12:23:28;4.63;;;2.00;;
211;SDS011;16228;48.800;9.002;2022-08-21T12:26:02;6.15;;;2.25;;
211;SDS011;16228;48.800;9.002;2022-08-21T12:28:39;3.28;;;2.50;;
211;SDS011;16228;48.800;9.002;2022-08-21T12:31:16;4.68;;;2.50;;
211;SDS011;16228;48.800;9.002;2022-08-21T12:33:47;5.53;;;2.95;;
211;SDS011;16228;48.800;9.002;2022-08-21T12:36:19;3.75;;;2.33;;
211;SDS011;16228;48.800;9.002;2022-08-21T12:38:51;3.42;;;2.47;;
211;SDS011;16228;48.800;9.002;2022-08-21T12:41:24;3.45;;;2.10;;
211;SDS011;16228;48.800;9.002;2022-08-21T12:43:56;2.85;;;2.38;;
211;SDS011;16228;48.800;9.002;2022-08-21T12:46:28;4.25;;;2.20;;
211;SDS011;16228;48.800;9.002;2022-08-21T12:49:07;3.65;;;2.35;;
211;SDS011;16228;48.800;9.002;2022-08-21T12:51:48;3.50;;;2.22;;
211;SDS011;16228;48.800;9.002;2022-08-21T12:54:25;4.35;;;2.05;;
211;SDS011;16228;48.800;9.002;2022-08-21T12:56:59;4.00;;;2.05;;
211;SDS011;16228;48.800;9.002;2022-08-21T12:59:28;2.97;;;2.00;;
211;SDS011;16228;48.800;9.002;2022-08-21T13:01:55;2.60;;;1.90;;
211;SDS011;16228;48.800;9.002;2022-08-21T13:04:26;4.40;;;2.33;;
211;SDS011;16228;48.800;9.002;2022-08-21T13:06:59;4.22;;;2.20;;
211;SDS011;16228;48.800;9.002;2022-08-21T13:09:28;2.78;;;2.25;;
211;SDS011;16228;48.800;9.002;2022-08-21T13:11:58;3.22;;;2.33;;
211;SDS011;16228;48.800;9.002;2022-08-21T13:14:28;3.72;;;2.35;;
211;SDS011;16228;48.800;9.002;2022-08-21T13:16:58;4.45;;;2.58;;
211;SDS011;16228;48.800;9.002;2022-08-21T13:19:26;3.47;;;2.30;;
211;SDS011;16228;48.800;9.002;2022-08-21T13:21:55;4.25;;;2.30;;
211;SDS011;16228;48.800;9.002;2022-08-21T13:24:23;3.05;;;1.98;;
211;SDS011;16228;48.800;9.002;2022-08-21T13:26:51;3.38;;;2.50;;
211;SDS011;16228;48.800;9.002;2022-08-21T13:29:21;3.75;;;2.67;;
211;SDS011;16228;48.800;9.002;2022-08-21T13:31:54;3.25;;;2.30;;
211;SDS011;16228;48.800;9.002;2022-08-21T13:34:24;5.33;;;2.87;;
211;SDS011;16228;48.800;9.002;2022-08-21T13:36:54;3.13;;;2.10;;
211;SDS011;16228;48.800;9.002;2022-08-21T13:39:25;4.90;;;2.20;;
211;SDS011;16228;48.800;9.002;2022-08-21T13:41:53;4.27;;;2.27;;
211;SDS011;16228;48.800;9.002;2022-08-21T13:44:30;4.17;;;2.10;;
211;SDS011;16228;48.800;9.002;2022-08-21T13:47:00;4.17;;;2.40;;
211;SDS011;16228;48.800;9.002;2022-08-21T13:49:31;3.63;;;2.37;;
211;SDS011;16228;48.800;9.002;2022-08-21T13:52:00;3.77;;;2.50;;
211;SDS011;16228;48.800;9.002;2022-08-21T13:54:29;4.47;;;2.17;;
211;SDS011;16228;48.800;9.002;2022-08-21T13:57:00;4.00;;;2.33;;
211;SDS011;16228;48.800;9.002;2022-08-21T13:59:30;3.93;;;2.03;;
211;SDS011;16228;48.800;9.002;2022-08-21T14:01:59;3.37;;;2.13;;
211;SDS011;16228;48.800;9.002;2022-08-21T14:04:35;4.23;;;2.50;;
211;SDS011;16228;48.800;9.002;2022-08-21T14:07:14;4.37;;;2.60;;
211;SDS011;16228;48.800;9.002;2022-08-21T14:09:44;2.90;;;2.33;;
211;SDS011;16228;48.800;9.002;2022-08-21T14:12:12;3.10;;;2.20;;
211;SDS011;16228;48.800;9.002;2022-08-21T14:14:42;4.30;;;2.57;;
211;SDS011;16228;48.800;9.002;2022-08-21T14:17:12;3.77;;;2.37;;
211;SDS011;16228;48.800;9.002;2022-08-21T14:19:51;4.87;;;2.90;;
211;SDS011;16228;48.800;9.002;2022-08-21T14:22:23;3.57;;;2.50;;
211;SDS011;16228;48.800;9.002;2022-08-21T14:24:58;3.83;;;2.50;;
211;SDS011;16228;48.800;9.002;2022-08-21T14:27:27;2.77;;;2.00;;
211;SDS011;16228;48.800;9.002;2022-08-21T14:29:59;2.87;;;1.97;;
211;SDS011;16228;48.800;9.002;2022-08-21T14:32:28;5.30;;;2.50;;
211;SDS011;16228;48.800;9.002;2022-08-21T14:35:02;3.23;;;2.30;;
211;SDS011;16228;48.800;9.002;2022-08-21T14:37:29;5.73;;;2.40;;
211;SDS011;16228;48.800;9.002;2022-08-21T14:39:56;3.60;;;2.50;;
211;SDS011;16228;48.800;9.002;2022-08-21T14:42:23;3.43;;;2.10;;
211;SDS011;16228;48.800;9.002;2022-08-21T14:44:51;4.30;;;2.40;;
211;SDS011;16228;48.800;9.002;2022-08-21T14:47:21;3.90;;;2.23;;
211;SDS011;16228;48.800;9.002;2022-08-21T14:49:48;4.60;;;2.67;;
211;SDS011;16228;48.800;9.002;2022-08-21T14:52:18;3.40;;;2.20;;
211;SDS011;16228;48.800;9.002;2022-08-21T14:54:45;4.13;;;2.17;;
211;SDS011;16228;48.800;9.002;2022-08-21T14:57:12;4.37;;;2.50;;
211;SDS011;16228;48.800;9.002;2022-08-21T14:59:39;6.50;;;2.47;;
211;SDS011;16228;48.800;9.002;2022-08-21T15:02:07;2.43;;;2.20;;
211;SDS011;16228;48.800;9.002;2022-08-21T15:04:36;2.97;;;2.37;;
211;SDS011;16228;48.800;9.002;2022-08-21T15:07:03;4.27;;;2.20;;
211;SDS011;16228;48.800;9.002;2022-08-21T15:09:31;3.73;;;2.27;;
211;SDS011;16228;48.800;9.002;2022-08-21T15:11:58;3.73;;;2.40;;
211;SDS011;16228;48.800;9.002;2022-08-21T15:14:27;4.60;;;2.50;;
211;SDS011;16228;48.800;9.002;2022-08-21T15:16:56;3.97;;;2.50;;
211;SDS011;16228;48.800;9.002;2022-08-21T15:19:23;3.40;;;2.30;;
211;SDS011;16228;48.800;9.002;2022-08-21T15:21:52;5.00;;;2.33;;
211;SDS011;16228;48.800;9.002;2022-08-21T15:24:19;3.90;;;2.37;;
211;SDS011;16228;48.800;9.002;2022-08-21T15:26:46;3.20;;;2.30;;
211;SDS011;16228;48.800;9.002;2022-08-21T15:29:14;8.33;;;2.77;;
211;SDS011;16228;48.800;9.002;2022-08-21T15:31:49;3.17;;;2.27;;